sensor_id;sensor_type;location;lat;lon;timestamp;P1;durP1;ratioP1;P2;durP2;ratioP2
72639;SDS011;60683;51.730;8.762;2023-07-20T00:00:22;7.10;;;3.70;;
72639;SDS011;60683;51.730;8.762;2023-07-20T00:03:10;6.95;;;3.40;;
72639;SDS011;60683;51.730;8.762;2023-07-20T00:05:42;6.88;;;3.92;;
72639;SDS011;60683;51.730;8.762;2023-07-20T00:08:10;6.65;;;3.42;;
72639;SDS011;60683;51.730;8.762;2023-07-20T00:10:39;7.60;;;3.90;;
72639;SDS011;60683;51.730;8.762;2023-07-20T00:13:08;6.30;;;3.92;;
72639;SDS011;60683;51.730;8.762;2023-07-20T00:15:35;7.85;;;4.22;;
72639;SDS011;60683;51.730;8.762;2023-07-20T00:18:03;9.25;;;4.82;;
72639;SDS011;60683;51.730;8.762;2023-07-20T00:20:31;9.23;;;4.93;;
72639;SDS011;60683;51.730;8.762;2023-07-20T00:22:58;6.75;;;4.45;;
72639;SDS011;60683;51.730;8.762;2023-07-20T00:25:25;8.27;;;5.03;;
72639;SDS011;60683;51.730;8.762;2023-07-20T00:27:55;9.13;;;4.90;;
72639;SDS011;60683;51.730;8.762;2023-07-20T00:30:22;7.25;;;4.38;;
72639;SDS011;60683;51.730;8.762;2023-07-20T00:32:50;10.60;;;5.10;;
72639;SDS011;60683;51.730;8.762;2023-07-20T00:35:18;10.90;;;5.43;;
72639;SDS011;60683;51.730;8.762;2023-07-20T00:37:46;10.68;;;4.97;;
72639;SDS011;60683;51.730;8.762;2023-07-20T00:40:13;7.70;;;4.85;;
72639;SDS011;60683;51.730;8.762;2023-07-20T00:42:41;10.80;;;5.65;;
72639;SDS011;60683;51.730;8.762;2023-07-20T00:45:10;9.50;;;5.28;;
72639;SDS011;60683;51.730;8.762;2023-07-20T00:47:38;11.25;;;6.00;;
72639;SDS011;60683;51.730;8.762;2023-07-20T00:50:06;9.52;;;5.30;;
72639;SDS011;60683;51.730;8.762;2023-07-20T00:52:34;10.57;;;6.43;;
72639;SDS011;60683;51.730;8.762;2023-07-20T00:55:05;9.50;;;5.40;;
72639;SDS011;60683;51.730;8.762;2023-07-20T00:57:34;10.27;;;6.30;;
72639;SDS011;60683;51.730;8.762;2023-07-20T01:00:02;13.00;;;7.25;;
72639;SDS011;60683;51.730;8.762;2023-07-20T01:02:33;10.32;;;5.65;;
72639;SDS011;60683;51.730;8.762;2023-07-20T01:05:01;9.23;;;5.63;;
72639;SDS011;60683;51.730;8.762;2023-07-20T01:07:30;11.32;;;6.32;;
72639;SDS011;60683;51.730;8.762;2023-07-20T01:10:03;9.20;;;5.68;;
72639;SDS011;60683;51.730;8.762;2023-07-20T01:12:39;10.90;;;6.30;;
72639;SDS011;60683;51.730;8.762;2023-07-20T01:15:09;11.23;;;6.13;;
72639;SDS011;60683;51.730;8.762;2023-07-20T01:17:38;10.43;;;6.43;;
72639;SDS011;60683;51.730;8.762;2023-07-20T01:20:06;11.73;;;7.45;;
72639;SDS011;60683;51.730;8.762;2023-07-20T01:22:43;13.68;;;7.70;;
72639;SDS011;60683;51.730;8.762;2023-07-20T01:25:28;12.15;;;7.47;;
72639;SDS011;60683;51.730;8.762;2023-07-20T01:33:53;11.38;;;7.15;;
72639;SDS011;60683;51.730;8.762;2023-07-20T01:36:23;11.00;;;7.50;;
72639;SDS011;60683;51.730;8.762;2023-07-20T01:38:54;12.75;;;7.20;;
72639;SDS011;60683;51.730;8.762;2023-07-20T01:41:23;13.07;;;8.10;;
72639;SDS011;60683;51.730;8.762;2023-07-20T01:43:51;15.88;;;9.85;;
72639;SDS011;60683;51.730;8.762;2023-07-20T01:46:18;15.10;;;8.57;;
72639;SDS011;60683;51.730;8.762;2023-07-20T01:48:47;17.63;;;10.02;;
72639;SDS011;60683;51.730;8.762;2023-07-20T01:51:16;13.63;;;8.55;;
72639;SDS011;60683;51.730;8.762;2023-07-20T01:53:44;18.90;;;9.52;;
72639;SDS011;60683;51.730;8.762;2023-07-20T01:56:11;15.38;;;9.85;;
72639;SDS011;60683;51.730;8.762;2023-07-20T01:58:39;15.18;;;10.20;;
72639;SDS011;60683;51.730;8.762;2023-07-20T02:01:07;18.08;;;9.43;;
72639;SDS011;60683;51.730;8.762;2023-07-20T02:03:34;15.50;;;10.05;;
72639;SDS011;60683;51.730;8.762;2023-07-20T02:06:06;16.52;;;10.13;;
72639;SDS011;60683;51.730;8.762;2023-07-20T02:08:34;20.55;;;10.73;;
72639;SDS011;60683;51.730;8.762;2023-07-20T02:11:01;20.77;;;10.80;;
72639;SDS011;60683;51.730;8.762;2023-07-20T02:13:30;16.83;;;10.18;;
72639;SDS011;60683;51.730;8.762;2023-07-20T02:15:58;17.23;;;9.07;;
72639;SDS011;60683;51.730;8.762;2023-07-20T02:18:25;17.60;;;10.68;;
72639;SDS011;60683;51.730;8.762;2023-07-20T02:20:53;18.33;;;9.77;;
72639;SDS011;60683;51.730;8.762;2023-07-20T02:23:23;19.70;;;10.90;;
72639;SDS011;60683;51.730;8.762;2023-07-20T02:25:50;18.60;;;10.65;;
72639;SDS011;60683;51.730;8.762;2023-07-20T02:28:18;14.75;;;10.13;;
72639;SDS011;60683;51.730;8.762;2023-07-20T02:30:45;17.90;;;10.93;;
72639;SDS011;60683;51.730;8.762;2023-07-20T02:33:15;17.40;;;10.13;;
72639;SDS011;60683;51.730;8.762;2023-07-20T02:35:43;16.65;;;9.68;;
72639;SDS011;60683;51.730;8.762;2023-07-20T02:38:11;17.55;;;10.40;;
72639;SDS011;60683;51.730;8.762;2023-07-20T02:40:40;17.40;;;10.45;;
72639;SDS011;60683;51.730;8.762;2023-07-20T02:43:07;16.88;;;10.07;;
72639;SDS011;60683;51.730;8.762;2023-07-20T02:45:35;17.42;;;10.02;;
72639;SDS011;60683;51.730;8.762;2023-07-20T02:48:06;16.70;;;10.13;;
72639;SDS011;60683;51.730;8.762;2023-07-20T02:50:34;17.50;;;11.00;;
72639;SDS011;60683;51.730;8.762;2023-07-20T02:53:02;18.58;;;11.98;;
72639;SDS011;60683;51.730;8.762;2023-07-20T02:55:29;18.45;;;10.45;;
72639;SDS011;60683;51.730;8.762;2023-07-20T02:57:59;17.08;;;9.65;;
72639;SDS011;60683;51.730;8.762;2023-07-20T03:00:26;17.42;;;10.88;;
72639;SDS011;60683;51.730;8.762;2023-07-20T03:02:54;18.40;;;11.02;;
72639;SDS011;60683;51.730;8.762;2023-07-20T03:05:22;19.02;;;11.20;;
72639;SDS011;60683;51.730;8.762;2023-07-20T03:07:51;20.17;;;11.23;;
72639;SDS011;60683;51.730;8.762;2023-07-20T03:10:18;21.95;;;11.63;;
72639;SDS011;60683;51.730;8.762;2023-07-20T03:12:46;19.20;;;11.45;;
72639;SDS011;60683;51.730;8.762;2023-07-20T03:15:14;20.60;;;11.77;;
72639;SDS011;60683;51.730;8.762;2023-07-20T03:17:42;18.10;;;10.48;;
72639;SDS011;60683;51.730;8.762;2023-07-20T03:20:10;20.70;;;11.68;;
72639;SDS011;60683;51.730;8.762;2023-07-20T03:22:39;21.63;;;12.00;;
72639;SDS011;60683;51.730;8.762;2023-07-20T03:25:06;20.35;;;11.52;;
72639;SDS011;60683;51.730;8.762;2023-07-20T03:27:35;22.85;;;12.23;;
72639;SDS011;60683;51.730;8.762;2023-07-20T03:30:02;23.00;;;13.75;;
72639;SDS011;60683;51.730;8.762;2023-07-20T03:32:34;24.45;;;13.45;;
72639;SDS011;60683;51.730;8.762;2023-07-20T03:35:01;23.15;;;13.57;;
72639;SDS011;60683;51.730;8.762;2023-07-20T03:37:30;23.83;;;13.15;;
72639;SDS011;60683;51.730;8.762;2023-07-20T03:39:57;24.38;;;12.93;;
72639;SDS011;60683;51.730;8.762;2023-07-20T03:42:25;23.05;;;13.15;;
72639;SDS011;60683;51.730;8.762;2023-07-20T03:44:54;24.17;;;12.98;;
72639;SDS011;60683;51.730;8.762;2023-07-20T03:47:22;22.88;;;12.57;;
72639;SDS011;60683;51.730;8.762;2023-07-20T03:49:51;22.15;;;12.48;;
72639;SDS011;60683;51.730;8.762;2023-07-20T03:52:19;26.95;;;16.13;;
72639;SDS011;60683;51.730;8.762;2023-07-20T03:54:46;24.38;;;14.27;;
72639;SDS011;60683;51.730;8.762;2023-07-20T03:57:13;25.48;;;14.73;;
72639;SDS011;60683;51.730;8.762;2023-07-20T03:59:44;27.95;;;15.02;;
72639;SDS011;60683;51.730;8.762;2023-07-20T04:02:12;26.98;;;14.77;;
72639;SDS011;60683;51.730;8.762;2023-07-20T04:04:40;27.33;;;15.55;;
72639;SDS011;60683;51.730;8.762;2023-07-20T04:07:09;26.98;;;15.90;;
72639;SDS011;60683;51.730;8.762;2023-07-20T04:09:36;26.35;;;14.82;;
72639;SDS011;60683;51.730;8.762;2023-07-20T04:12:05;23.65;;;13.77;;
72639;SDS011;60683;51.730;8.762;2023-07-20T04:14:32;28.83;;;14.98;;
72639;SDS011;60683;51.730;8.762;2023-07-20T04:17:00;35.15;;;15.60;;
72639;SDS011;60683;51.730;8.762;2023-07-20T04:19:28;25.98;;;14.15;;
72639;SDS011;60683;51.730;8.762;2023-07-20T04:21:55;20.77;;;13.25;;
72639;SDS011;60683;51.730;8.762;2023-07-20T04:24:24;17.08;;;9.57;;
72639;SDS011;60683;51.730;8.762;2023-07-20T04:26:51;16.45;;;8.57;;
72639;SDS011;60683;51.730;8.762;2023-07-20T04:29:19;14.90;;;9.40;;
72639;SDS011;60683;51.730;8.762;2023-07-20T04:31:47;16.17;;;9.88;;
72639;SDS011;60683;51.730;8.762;2023-07-20T04:34:14;15.15;;;8.77;;
72639;SDS011;60683;51.730;8.762;2023-07-20T04:36:42;19.17;;;9.95;;
72639;SDS011;60683;51.730;8.762;2023-07-20T04:39:10;19.45;;;10.10;;
72639;SDS011;60683;51.730;8.762;2023-07-20T04:41:39;17.90;;;11.02;;
72639;SDS011;60683;51.730;8.762;2023-07-20T04:44:06;17.00;;;10.63;;
72639;SDS011;60683;51.730;8.762;2023-07-20T04:46:35;17.48;;;10.38;;
72639;SDS011;60683;51.730;8.762;2023-07-20T04:49:03;20.30;;;10.07;;
72639;SDS011;60683;51.730;8.762;2023-07-20T04:51:31;18.52;;;10.63;;
72639;SDS011;60683;51.730;8.762;2023-07-20T04:53:58;20.30;;;9.98;;
72639;SDS011;60683;51.730;8.762;2023-07-20T04:56:25;20.15;;;11.57;;
72639;SDS011;60683;51.730;8.762;2023-07-20T04:58:54;19.55;;;10.98;;
72639;SDS011;60683;51.730;8.762;2023-07-20T05:01:23;19.60;;;11.32;;
72639;SDS011;60683;51.730;8.762;2023-07-20T05:03:52;20.70;;;12.35;;
72639;SDS011;60683;51.730;8.762;2023-07-20T05:06:20;20.92;;;11.90;;
72639;SDS011;60683;51.730;8.762;2023-07-20T05:08:47;20.80;;;12.27;;
72639;SDS011;60683;51.730;8.762;2023-07-20T05:11:15;21.10;;;13.02;;
72639;SDS011;60683;51.730;8.762;2023-07-20T05:13:43;18.27;;;10.85;;
72639;SDS011;60683;51.730;8.762;2023-07-20T05:16:12;20.00;;;11.43;;
72639;SDS011;60683;51.730;8.762;2023-07-20T05:18:39;19.38;;;11.25;;
72639;SDS011;60683;51.730;8.762;2023-07-20T05:21:07;19.73;;;10.45;;
72639;SDS011;60683;51.730;8.762;2023-07-20T05:23:34;17.95;;;10.70;;
72639;SDS011;60683;51.730;8.762;2023-07-20T05:26:02;18.05;;;10.57;;
72639;SDS011;60683;51.730;8.762;2023-07-20T05:28:29;18.60;;;10.35;;
72639;SDS011;60683;51.730;8.762;2023-07-20T05:30:57;16.90;;;10.15;;
72639;SDS011;60683;51.730;8.762;2023-07-20T05:33:26;18.02;;;10.05;;
72639;SDS011;60683;51.730;8.762;2023-07-20T05:35:54;15.60;;;9.00;;
72639;SDS011;60683;51.730;8.762;2023-07-20T05:38:22;15.27;;;9.73;;
72639;SDS011;60683;51.730;8.762;2023-07-20T05:40:50;17.52;;;9.43;;
72639;SDS011;60683;51.730;8.762;2023-07-20T05:43:17;15.63;;;9.60;;
72639;SDS011;60683;51.730;8.762;2023-07-20T05:45:45;12.15;;;6.63;;
72639;SDS011;60683;51.730;8.762;2023-07-20T05:48:13;8.88;;;5.28;;
72639;SDS011;60683;51.730;8.762;2023-07-20T05:50:44;8.73;;;4.38;;
72639;SDS011;60683;51.730;8.762;2023-07-20T05:53:12;7.55;;;3.88;;
72639;SDS011;60683;51.730;8.762;2023-07-20T05:55:39;6.38;;;3.67;;
72639;SDS011;60683;51.730;8.762;2023-07-20T05:58:07;7.97;;;4.32;;
72639;SDS011;60683;51.730;8.762;2023-07-20T06:00:34;5.03;;;2.75;;
72639;SDS011;60683;51.730;8.762;2023-07-20T06:03:01;6.22;;;3.35;;
72639;SDS011;60683;51.730;8.762;2023-07-20T06:05:29;7.47;;;3.65;;
72639;SDS011;60683;51.730;8.762;2023-07-20T06:07:58;6.20;;;3.35;;
72639;SDS011;60683;51.730;8.762;2023-07-20T06:10:26;7.28;;;4.07;;
72639;SDS011;60683;51.730;8.762;2023-07-20T06:12:54;5.28;;;3.30;;
72639;SDS011;60683;51.730;8.762;2023-07-20T06:15:25;6.38;;;3.58;;
72639;SDS011;60683;51.730;8.762;2023-07-20T06:17:54;6.65;;;3.33;;
72639;SDS011;60683;51.730;8.762;2023-07-20T06:20:24;5.82;;;3.35;;
72639;SDS011;60683;51.730;8.762;2023-07-20T06:22:51;6.57;;;2.88;;
72639;SDS011;60683;51.730;8.762;2023-07-20T06:25:20;5.53;;;3.20;;
72639;SDS011;60683;51.730;8.762;2023-07-20T06:27:48;5.70;;;3.00;;
72639;SDS011;60683;51.730;8.762;2023-07-20T06:30:17;6.57;;;3.47;;
72639;SDS011;60683;51.730;8.762;2023-07-20T06:32:44;5.82;;;3.05;;
72639;SDS011;60683;51.730;8.762;2023-07-20T06:35:12;5.63;;;2.97;;
72639;SDS011;60683;51.730;8.762;2023-07-20T06:37:39;4.82;;;2.58;;
72639;SDS011;60683;51.730;8.762;2023-07-20T06:40:13;4.45;;;2.67;;
72639;SDS011;60683;51.730;8.762;2023-07-20T06:42:41;6.68;;;4.00;;
72639;SDS011;60683;51.730;8.762;2023-07-20T06:45:09;5.63;;;3.10;;
72639;SDS011;60683;51.730;8.762;2023-07-20T06:47:37;5.03;;;2.90;;
72639;SDS011;60683;51.730;8.762;2023-07-20T06:50:06;5.15;;;2.60;;
72639;SDS011;60683;51.730;8.762;2023-07-20T06:52:33;5.22;;;2.63;;
72639;SDS011;60683;51.730;8.762;2023-07-20T06:55:01;6.90;;;2.83;;
72639;SDS011;60683;51.730;8.762;2023-07-20T06:57:29;4.22;;;2.65;;
72639;SDS011;60683;51.730;8.762;2023-07-20T06:59:57;5.20;;;2.38;;
72639;SDS011;60683;51.730;8.762;2023-07-20T07:02:25;4.40;;;2.50;;
72639;SDS011;60683;51.730;8.762;2023-07-20T07:04:52;4.50;;;2.00;;
72639;SDS011;60683;51.730;8.762;2023-07-20T07:07:22;4.22;;;2.40;;
72639;SDS011;60683;51.730;8.762;2023-07-20T07:09:49;4.97;;;2.92;;
72639;SDS011;60683;51.730;8.762;2023-07-20T07:12:16;6.22;;;2.60;;
72639;SDS011;60683;51.730;8.762;2023-07-20T07:14:44;3.85;;;2.17;;
72639;SDS011;60683;51.730;8.762;2023-07-20T07:17:12;4.40;;;2.22;;
72639;SDS011;60683;51.730;8.762;2023-07-20T07:19:40;5.15;;;2.80;;
72639;SDS011;60683;51.730;8.762;2023-07-20T07:22:08;4.35;;;2.70;;
72639;SDS011;60683;51.730;8.762;2023-07-20T07:24:35;5.35;;;3.03;;
72639;SDS011;60683;51.730;8.762;2023-07-20T07:27:03;5.72;;;2.83;;
72639;SDS011;60683;51.730;8.762;2023-07-20T07:29:31;5.80;;;2.90;;
72639;SDS011;60683;51.730;8.762;2023-07-20T07:31:58;5.22;;;2.30;;
72639;SDS011;60683;51.730;8.762;2023-07-20T07:34:27;3.83;;;1.90;;
72639;SDS011;60683;51.730;8.762;2023-07-20T07:36:54;4.80;;;2.03;;
72639;SDS011;60683;51.730;8.762;2023-07-20T07:39:22;4.32;;;2.08;;
72639;SDS011;60683;51.730;8.762;2023-07-20T07:41:50;3.35;;;1.85;;
72639;SDS011;60683;51.730;8.762;2023-07-20T07:44:17;4.40;;;2.17;;
72639;SDS011;60683;51.730;8.762;2023-07-20T07:46:47;3.85;;;1.80;;
72639;SDS011;60683;51.730;8.762;2023-07-20T07:49:15;3.58;;;1.65;;
72639;SDS011;60683;51.730;8.762;2023-07-20T07:51:43;3.58;;;1.63;;
72639;SDS011;60683;51.730;8.762;2023-07-20T07:54:11;3.55;;;1.70;;
72639;SDS011;60683;51.730;8.762;2023-07-20T07:56:38;5.22;;;1.50;;
72639;SDS011;60683;51.730;8.762;2023-07-20T07:59:07;3.55;;;1.30;;
72639;SDS011;60683;51.730;8.762;2023-07-20T08:01:34;3.15;;;1.15;;
72639;SDS011;60683;51.730;8.762;2023-07-20T08:04:01;2.28;;;0.90;;
72639;SDS011;60683;51.730;8.762;2023-07-20T08:06:29;2.38;;;1.00;;
72639;SDS011;60683;51.730;8.762;2023-07-20T08:08:58;3.80;;;1.08;;
72639;SDS011;60683;51.730;8.762;2023-07-20T08:11:26;4.50;;;1.25;;
72639;SDS011;60683;51.730;8.762;2023-07-20T08:13:53;2.78;;;1.10;;
72639;SDS011;60683;51.730;8.762;2023-07-20T08:16:21;2.88;;;1.15;;
72639;SDS011;60683;51.730;8.762;2023-07-20T08:18:48;2.55;;;1.20;;
72639;SDS011;60683;51.730;8.762;2023-07-20T08:21:16;2.20;;;0.90;;
72639;SDS011;60683;51.730;8.762;2023-07-20T08:23:44;2.25;;;1.10;;
72639;SDS011;60683;51.730;8.762;2023-07-20T08:26:12;3.45;;;1.20;;
72639;SDS011;60683;51.730;8.762;2023-07-20T08:28:40;1.83;;;0.88;;
72639;SDS011;60683;51.730;8.762;2023-07-20T08:31:07;1.67;;;0.70;;
72639;SDS011;60683;51.730;8.762;2023-07-20T08:33:35;2.78;;;0.90;;
72639;SDS011;60683;51.730;8.762;2023-07-20T08:36:02;1.83;;;0.90;;
72639;SDS011;60683;51.730;8.762;2023-07-20T08:38:30;1.95;;;0.80;;
72639;SDS011;60683;51.730;8.762;2023-07-20T08:40:57;1.65;;;0.70;;
72639;SDS011;60683;51.730;8.762;2023-07-20T08:43:27;1.55;;;0.70;;
72639;SDS011;60683;51.730;8.762;2023-07-20T08:45:55;2.55;;;0.93;;
72639;SDS011;60683;51.730;8.762;2023-07-20T08:48:23;1.67;;;0.75;;
72639;SDS011;60683;51.730;8.762;2023-07-20T08:50:51;3.45;;;1.05;;
72639;SDS011;60683;51.730;8.762;2023-07-20T08:53:20;1.50;;;0.60;;
72639;SDS011;60683;51.730;8.762;2023-07-20T08:55:48;1.40;;;0.50;;
72639;SDS011;60683;51.730;8.762;2023-07-20T09:00:46;2.22;;;0.70;;
72639;SDS011;60683;51.730;8.762;2023-07-20T09:03:17;3.20;;;0.80;;
72639;SDS011;60683;51.730;8.762;2023-07-20T09:05:45;2.75;;;0.73;;
72639;SDS011;60683;51.730;8.762;2023-07-20T09:08:13;2.65;;;0.90;;
72639;SDS011;60683;51.730;8.762;2023-07-20T09:10:40;1.90;;;0.60;;
72639;SDS011;60683;51.730;8.762;2023-07-20T09:13:07;2.05;;;0.40;;
72639;SDS011;60683;51.730;8.762;2023-07-20T09:15:35;1.77;;;0.57;;
72639;SDS011;60683;51.730;8.762;2023-07-20T09:18:04;1.73;;;0.80;;
72639;SDS011;60683;51.730;8.762;2023-07-20T09:20:32;2.17;;;0.80;;
72639;SDS011;60683;51.730;8.762;2023-07-20T09:23:03;2.00;;;0.90;;
72639;SDS011;60683;51.730;8.762;2023-07-20T09:25:31;1.50;;;0.60;;
72639;SDS011;60683;51.730;8.762;2023-07-20T09:28:01;2.33;;;0.70;;
72639;SDS011;60683;51.730;8.762;2023-07-20T09:35:26;1.85;;;0.77;;
72639;SDS011;60683;51.730;8.762;2023-07-20T09:37:54;1.50;;;0.60;;
72639;SDS011;60683;51.730;8.762;2023-07-20T09:40:25;1.90;;;0.77;;
72639;SDS011;60683;51.730;8.762;2023-07-20T09:42:53;1.33;;;0.50;;
72639;SDS011;60683;51.730;8.762;2023-07-20T09:45:28;1.70;;;0.70;;
72639;SDS011;60683;51.730;8.762;2023-07-20T09:48:02;2.05;;;0.80;;
72639;SDS011;60683;51.730;8.762;2023-07-20T09:50:31;2.03;;;0.70;;
72639;SDS011;60683;51.730;8.762;2023-07-20T09:52:59;0.88;;;0.50;;
72639;SDS011;60683;51.730;8.762;2023-07-20T09:55:27;1.77;;;0.40;;
72639;SDS011;60683;51.730;8.762;2023-07-20T09:57:56;1.10;;;0.60;;
72639;SDS011;60683;51.730;8.762;2023-07-20T10:00:23;2.20;;;0.63;;
72639;SDS011;60683;51.730;8.762;2023-07-20T10:02:51;2.38;;;0.70;;
72639;SDS011;60683;51.730;8.762;2023-07-20T10:05:19;2.30;;;0.73;;
72639;SDS011;60683;51.730;8.762;2023-07-20T10:07:49;1.42;;;0.73;;
72639;SDS011;60683;51.730;8.762;2023-07-20T10:10:18;3.95;;;0.68;;
72639;SDS011;60683;51.730;8.762;2023-07-20T10:12:47;2.03;;;0.75;;
72639;SDS011;60683;51.730;8.762;2023-07-20T10:15:18;4.30;;;0.70;;
72639;SDS011;60683;51.730;8.762;2023-07-20T10:17:51;2.08;;;0.88;;
72639;SDS011;60683;51.730;8.762;2023-07-20T10:20:24;2.10;;;0.57;;
72639;SDS011;60683;51.730;8.762;2023-07-20T10:22:54;2.42;;;0.75;;
72639;SDS011;60683;51.730;8.762;2023-07-20T10:27:51;1.30;;;0.85;;
72639;SDS011;60683;51.730;8.762;2023-07-20T10:30:18;2.20;;;0.70;;
72639;SDS011;60683;51.730;8.762;2023-07-20T10:32:46;2.10;;;0.98;;
72639;SDS011;60683;51.730;8.762;2023-07-20T10:35:16;2.13;;;0.90;;
72639;SDS011;60683;51.730;8.762;2023-07-20T10:37:48;1.92;;;0.88;;
72639;SDS011;60683;51.730;8.762;2023-07-20T10:40:30;2.78;;;1.10;;
72639;SDS011;60683;51.730;8.762;2023-07-20T10:42:59;4.20;;;1.10;;
72639;SDS011;60683;51.730;8.762;2023-07-20T10:45:41;3.25;;;1.23;;
72639;SDS011;60683;51.730;8.762;2023-07-20T10:48:15;1.95;;;0.70;;
72639;SDS011;60683;51.730;8.762;2023-07-20T10:50:45;1.63;;;0.73;;
72639;SDS011;60683;51.730;8.762;2023-07-20T10:53:33;2.38;;;0.65;;
72639;SDS011;60683;51.730;8.762;2023-07-20T10:56:08;2.17;;;0.77;;
72639;SDS011;60683;51.730;8.762;2023-07-20T10:58:39;2.38;;;0.88;;
72639;SDS011;60683;51.730;8.762;2023-07-20T11:01:07;2.15;;;0.80;;
72639;SDS011;60683;51.730;8.762;2023-07-20T11:03:36;2.25;;;0.75;;
72639;SDS011;60683;51.730;8.762;2023-07-20T11:09:06;1.48;;;0.65;;
72639;SDS011;60683;51.730;8.762;2023-07-20T11:11:38;1.45;;;0.80;;
72639;SDS011;60683;51.730;8.762;2023-07-20T11:14:07;2.17;;;0.73;;
72639;SDS011;60683;51.730;8.762;2023-07-20T11:16:35;1.70;;;0.73;;
72639;SDS011;60683;51.730;8.762;2023-07-20T11:19:05;2.50;;;0.60;;
72639;SDS011;60683;51.730;8.762;2023-07-20T11:21:36;1.30;;;0.68;;
72639;SDS011;60683;51.730;8.762;2023-07-20T11:24:05;2.35;;;0.60;;
72639;SDS011;60683;51.730;8.762;2023-07-20T11:26:41;1.48;;;0.63;;
72639;SDS011;60683;51.730;8.762;2023-07-20T11:29:09;1.83;;;0.70;;
72639;SDS011;60683;51.730;8.762;2023-07-20T11:31:37;2.05;;;0.68;;
72639;SDS011;60683;51.730;8.762;2023-07-20T11:34:05;2.75;;;0.70;;
72639;SDS011;60683;51.730;8.762;2023-07-20T11:36:33;2.20;;;0.73;;
72639;SDS011;60683;51.730;8.762;2023-07-20T11:39:00;1.75;;;1.00;;
72639;SDS011;60683;51.730;8.762;2023-07-20T11:41:30;2.95;;;1.00;;
72639;SDS011;60683;51.730;8.762;2023-07-20T11:44:00;0.68;;;0.47;;
72639;SDS011;60683;51.730;8.762;2023-07-20T11:46:29;1.20;;;0.70;;
72639;SDS011;60683;51.730;8.762;2023-07-20T11:48:57;1.65;;;0.77;;
72639;SDS011;60683;51.730;8.762;2023-07-20T11:51:26;3.08;;;1.00;;
72639;SDS011;60683;51.730;8.762;2023-07-20T11:53:55;1.98;;;0.70;;
72639;SDS011;60683;51.730;8.762;2023-07-20T11:56:24;1.50;;;0.63;;
72639;SDS011;60683;51.730;8.762;2023-07-20T11:58:55;2.03;;;0.75;;
72639;SDS011;60683;51.730;8.762;2023-07-20T12:01:28;2.03;;;0.70;;
72639;SDS011;60683;51.730;8.762;2023-07-20T12:03:58;1.15;;;0.60;;
72639;SDS011;60683;51.730;8.762;2023-07-20T12:06:27;1.45;;;0.80;;
72639;SDS011;60683;51.730;8.762;2023-07-20T12:08:56;1.55;;;0.63;;
72639;SDS011;60683;51.730;8.762;2023-07-20T12:11:31;1.67;;;0.70;;
72639;SDS011;60683;51.730;8.762;2023-07-20T12:13:59;1.35;;;0.70;;
72639;SDS011;60683;51.730;8.762;2023-07-20T12:16:29;1.70;;;0.70;;
72639;SDS011;60683;51.730;8.762;2023-07-20T12:19:01;5.45;;;0.90;;
72639;SDS011;60683;51.730;8.762;2023-07-20T12:21:29;2.13;;;0.98;;
72639;SDS011;60683;51.730;8.762;2023-07-20T12:23:57;1.52;;;0.70;;
72639;SDS011;60683;51.730;8.762;2023-07-20T12:26:25;2.60;;;0.93;;
72639;SDS011;60683;51.730;8.762;2023-07-20T12:28:56;1.80;;;0.90;;
72639;SDS011;60683;51.730;8.762;2023-07-20T12:31:24;2.95;;;0.80;;
72639;SDS011;60683;51.730;8.762;2023-07-20T12:33:54;1.73;;;0.80;;
72639;SDS011;60683;51.730;8.762;2023-07-20T12:36:22;3.40;;;1.33;;
72639;SDS011;60683;51.730;8.762;2023-07-20T12:38:50;2.60;;;1.13;;
72639;SDS011;60683;51.730;8.762;2023-07-20T12:41:17;1.90;;;0.90;;
72639;SDS011;60683;51.730;8.762;2023-07-20T12:43:45;2.83;;;1.10;;
72639;SDS011;60683;51.730;8.762;2023-07-20T12:46:13;1.92;;;1.00;;
72639;SDS011;60683;51.730;8.762;2023-07-20T12:48:41;2.20;;;1.00;;
72639;SDS011;60683;51.730;8.762;2023-07-20T12:51:11;3.20;;;1.10;;
72639;SDS011;60683;51.730;8.762;2023-07-20T12:53:39;2.60;;;1.30;;
72639;SDS011;60683;51.730;8.762;2023-07-20T12:56:06;2.92;;;1.20;;
72639;SDS011;60683;51.730;8.762;2023-07-20T12:58:34;3.13;;;1.60;;
72639;SDS011;60683;51.730;8.762;2023-07-20T13:01:03;2.25;;;1.08;;
72639;SDS011;60683;51.730;8.762;2023-07-20T13:03:30;2.20;;;1.20;;
72639;SDS011;60683;51.730;8.762;2023-07-20T13:05:57;3.30;;;1.60;;
72639;SDS011;60683;51.730;8.762;2023-07-20T13:08:28;3.35;;;1.60;;
72639;SDS011;60683;51.730;8.762;2023-07-20T13:10:55;2.90;;;1.42;;
72639;SDS011;60683;51.730;8.762;2023-07-20T13:13:22;3.42;;;1.70;;
72639;SDS011;60683;51.730;8.762;2023-07-20T13:15:50;3.22;;;1.40;;
72639;SDS011;60683;51.730;8.762;2023-07-20T13:18:18;2.97;;;1.60;;
72639;SDS011;60683;51.730;8.762;2023-07-20T13:20:45;2.60;;;1.85;;
72639;SDS011;60683;51.730;8.762;2023-07-20T13:23:12;2.83;;;1.55;;
72639;SDS011;60683;51.730;8.762;2023-07-20T13:25:41;4.15;;;1.48;;
72639;SDS011;60683;51.730;8.762;2023-07-20T13:28:09;2.78;;;1.60;;
72639;SDS011;60683;51.730;8.762;2023-07-20T13:30:36;5.35;;;1.60;;
72639;SDS011;60683;51.730;8.762;2023-07-20T13:33:04;2.55;;;1.52;;
72639;SDS011;60683;51.730;8.762;2023-07-20T13:35:31;2.90;;;1.52;;
72639;SDS011;60683;51.730;8.762;2023-07-20T13:37:58;2.63;;;1.45;;
72639;SDS011;60683;51.730;8.762;2023-07-20T13:40:26;3.67;;;1.70;;
72639;SDS011;60683;51.730;8.762;2023-07-20T13:42:55;2.78;;;1.40;;
72639;SDS011;60683;51.730;8.762;2023-07-20T13:45:22;2.80;;;1.20;;
72639;SDS011;60683;51.730;8.762;2023-07-20T13:47:50;2.95;;;1.65;;
72639;SDS011;60683;51.730;8.762;2023-07-20T13:50:17;2.75;;;1.42;;
72639;SDS011;60683;51.730;8.762;2023-07-20T13:52:45;2.38;;;1.10;;
72639;SDS011;60683;51.730;8.762;2023-07-20T13:55:13;2.67;;;1.55;;
72639;SDS011;60683;51.730;8.762;2023-07-20T13:57:41;2.83;;;1.27;;
72639;SDS011;60683;51.730;8.762;2023-07-20T14:00:10;2.08;;;1.10;;
72639;SDS011;60683;51.730;8.762;2023-07-20T14:02:39;1.98;;;1.02;;
72639;SDS011;60683;51.730;8.762;2023-07-20T14:05:07;2.38;;;1.10;;
72639;SDS011;60683;51.730;8.762;2023-07-20T14:07:36;1.85;;;0.95;;
72639;SDS011;60683;51.730;8.762;2023-07-20T14:10:03;1.73;;;0.93;;
72639;SDS011;60683;51.730;8.762;2023-07-20T14:12:31;2.95;;;1.30;;
72639;SDS011;60683;51.730;8.762;2023-07-20T14:14:59;1.92;;;0.80;;
72639;SDS011;60683;51.730;8.762;2023-07-20T14:17:28;2.22;;;0.90;;
72639;SDS011;60683;51.730;8.762;2023-07-20T14:19:55;2.33;;;1.00;;
72639;SDS011;60683;51.730;8.762;2023-07-20T14:22:22;1.90;;;0.90;;
72639;SDS011;60683;51.730;8.762;2023-07-20T14:24:50;1.38;;;0.88;;
72639;SDS011;60683;51.730;8.762;2023-07-20T14:27:17;2.42;;;1.00;;
72639;SDS011;60683;51.730;8.762;2023-07-20T14:29:47;3.50;;;0.90;;
72639;SDS011;60683;51.730;8.762;2023-07-20T14:32:15;2.22;;;0.80;;
72639;SDS011;60683;51.730;8.762;2023-07-20T14:34:43;1.73;;;0.60;;
72639;SDS011;60683;51.730;8.762;2023-07-20T14:37:11;0.95;;;0.52;;
72639;SDS011;60683;51.730;8.762;2023-07-20T14:39:38;1.65;;;0.93;;
72639;SDS011;60683;51.730;8.762;2023-07-20T14:42:06;1.90;;;0.60;;
72639;SDS011;60683;51.730;8.762;2023-07-20T14:44:34;1.58;;;0.60;;
72639;SDS011;60683;51.730;8.762;2023-07-20T14:47:01;1.77;;;0.63;;
72639;SDS011;60683;51.730;8.762;2023-07-20T14:49:28;1.48;;;0.75;;
72639;SDS011;60683;51.730;8.762;2023-07-20T14:51:57;2.10;;;0.77;;
72639;SDS011;60683;51.730;8.762;2023-07-20T14:54:25;1.80;;;0.63;;
72639;SDS011;60683;51.730;8.762;2023-07-20T14:56:52;1.52;;;0.75;;
72639;SDS011;60683;51.730;8.762;2023-07-20T14:59:20;1.83;;;0.63;;
72639;SDS011;60683;51.730;8.762;2023-07-20T15:01:47;0.80;;;0.35;;
72639;SDS011;60683;51.730;8.762;2023-07-20T15:04:15;1.35;;;0.60;;
72639;SDS011;60683;51.730;8.762;2023-07-20T15:06:42;1.83;;;0.60;;